TimeMDT,TemperatureF,Dew PointF,Humidity,Sea Level PressureIn,VisibilityMPH,Wind Direction,Wind SpeedMPH,Gust SpeedMPH,PrecipitationIn,Events,Conditions,WindDirDegrees,DateUTC
12:53 AM,51.1,21.9,32,30.05,10.0,Calm,Calm,-,N/A,,Clear,0,2012-09-02 06:53:00
1:53 AM,48.2,21.2,34,30.11,10.0,NW,4.6,-,N/A,,Clear,320,2012-09-02 07:53:00
2:53 AM,42.1,23.0,47,30.08,10.0,South,3.5,-,N/A,,Clear,190,2012-09-02 08:53:00
3:53 AM,43.0,24.1,47,30.09,10.0,Calm,Calm,-,N/A,,Clear,0,2012-09-02 09:53:00
4:53 AM,39.0,21.9,50,30.10,10.0,Calm,Calm,-,N/A,,Clear,0,2012-09-02 10:53:00
5:53 AM,43.0,25.0,49,30.12,10.0,Calm,Calm,-,N/A,,Clear,0,2012-09-02 11:53:00
6:53 AM,39.0,24.1,55,30.14,10.0,Calm,Calm,-,N/A,,Clear,0,2012-09-02 12:53:00
7:53 AM,41.0,27.0,57,30.15,10.0,Calm,Calm,-,N/A,,Clear,0,2012-09-02 13:53:00
8:53 AM,48.0,27.0,44,30.16,10.0,Calm,Calm,-,N/A,,Clear,0,2012-09-02 14:53:00
9:53 AM,52.0,28.0,40,30.15,10.0,Calm,Calm,-,N/A,,Clear,0,2012-09-02 15:53:00
10:53 AM,57.9,28.0,32,30.14,10.0,ESE,3.5,-,N/A,,Clear,120,2012-09-02 16:53:00
11:53 AM,64.0,28.9,27,30.10,6.0,Calm,Calm,-,N/A,,Haze,0,2012-09-02 17:53:00
12:53 PM,70.0,25.0,18,30.06,8.0,NNE,3.5,-,N/A,,Clear,20,2012-09-02 18:53:00
1:53 PM,72.0,27.0,19,30.03,7.0,Calm,Calm,-,N/A,,Clear,0,2012-09-02 19:53:00
2:53 PM,73.9,25.0,16,30.01,6.0,Variable,4.6,-,N/A,,Smoke,0,2012-09-02 20:53:00
3:53 PM,78.1,24.1,14,29.98,9.0,ENE,4.6,-,N/A,,Clear,60,2012-09-02 21:53:00
4:53 PM,77.0,23.0,13,29.98,10.0,Variable,4.6,-,N/A,,Clear,0,2012-09-02 22:53:00
5:53 PM,77.0,19.0,11,29.98,10.0,WNW,19.6,-,N/A,,Clear,290,2012-09-02 23:53:00
6:53 PM,75.0,12.9,9,30.01,10.0,WSW,15.0,-,N/A,,Partly Cloudy,250,2012-09-03 00:53:00
7:53 PM,72.0,17.1,12,30.02,10.0,WNW,15.0,-,N/A,,Scattered Clouds,300,2012-09-03 01:53:00
8:53 PM,64.9,18.0,16,30.04,10.0,NW,9.2,-,N/A,,Clear,310,2012-09-03 02:53:00
9:53 PM,64.0,18.0,17,30.05,10.0,NW,11.5,-,N/A,,Clear,310,2012-09-03 03:53:00
10:53 PM,63.0,19.9,19,30.06,10.0,North,10.4,-,N/A,,Clear,360,2012-09-03 04:53:00
11:53 PM,55.0,23.0,29,30.07,10.0,West,4.6,-,N/A,,Clear,280,2012-09-03 05:53:00